createdAt,value
2017-05-13T00:00:41.988Z,10.80
2017-05-13T00:03:09.511Z,10.80
2017-05-13T00:05:37.047Z,10.80
2017-05-13T00:08:05.670Z,10.70
2017-05-13T00:10:33.189Z,10.70
2017-05-13T00:13:00.703Z,10.80
2017-05-13T00:15:29.984Z,10.80
2017-05-13T00:17:57.533Z,10.80
2017-05-13T00:20:25.050Z,10.90
2017-05-13T00:22:53.368Z,10.90
2017-05-13T00:25:20.892Z,10.90
2017-05-13T00:27:49.185Z,10.90
2017-05-13T00:30:17.483Z,11.00
2017-05-13T00:32:45.047Z,11.00
2017-05-13T00:35:12.581Z,11.00
2017-05-13T00:37:40.088Z,11.00
2017-05-13T00:40:08.383Z,11.20
2017-05-13T00:42:36.703Z,11.20
2017-05-13T00:45:04.217Z,11.20
2017-05-13T00:47:31.715Z,11.20
2017-05-13T00:49:59.252Z,11.20
2017-05-13T00:52:26.764Z,11.20
2017-05-13T00:54:54.293Z,11.20
2017-05-13T00:57:21.811Z,11.10
2017-05-13T00:59:49.363Z,11.00
2017-05-13T01:02:17.159Z,11.00
2017-05-13T01:04:44.687Z,11.00
2017-05-13T01:07:12.288Z,11.10
2017-05-13T01:09:39.844Z,11.20
2017-05-13T01:12:07.443Z,11.10
2017-05-13T01:14:35.712Z,11.10
2017-05-13T01:17:04.045Z,11.10
2017-05-13T01:19:31.803Z,11.00
2017-05-13T01:21:59.321Z,11.00
2017-05-13T01:24:27.660Z,11.00
2017-05-13T01:26:55.224Z,11.00
2017-05-13T01:29:24.616Z,10.90
2017-05-13T01:31:53.645Z,10.80
2017-05-13T01:34:21.980Z,10.80
2017-05-13T01:36:49.520Z,10.70
2017-05-13T01:39:17.785Z,10.70
2017-05-13T01:41:46.107Z,10.70
2017-05-13T01:44:14.407Z,10.80
2017-05-13T01:46:41.910Z,10.80
2017-05-13T01:49:09.440Z,10.70
2017-05-13T01:51:36.935Z,10.60
2017-05-13T01:54:04.781Z,10.60
2017-05-13T01:56:32.638Z,10.50
2017-05-13T01:59:00.919Z,10.50
2017-05-13T02:01:28.416Z,10.40
2017-05-13T02:03:56.757Z,10.40
2017-05-13T02:06:24.393Z,10.30
2017-05-13T02:08:51.915Z,10.30
2017-05-13T02:11:20.184Z,10.30
2017-05-13T02:13:48.491Z,10.20
2017-05-13T02:16:16.809Z,10.20
2017-05-13T02:18:44.653Z,10.20
2017-05-13T02:21:12.925Z,10.40
2017-05-13T02:23:41.220Z,10.40
2017-05-13T02:26:08.721Z,10.30
2017-05-13T02:28:37.031Z,10.40
2017-05-13T02:31:04.581Z,10.40
2017-05-13T02:33:32.159Z,10.40
2017-05-13T02:35:59.939Z,10.30
2017-05-13T02:38:27.468Z,10.30
2017-05-13T02:40:55.234Z,10.20
2017-05-13T02:43:22.786Z,10.20
2017-05-13T02:45:50.340Z,10.20
2017-05-13T02:48:18.624Z,10.10
2017-05-13T02:50:46.153Z,10.10
2017-05-13T02:53:14.429Z,10.10
2017-05-13T02:55:41.948Z,10.10
2017-05-13T02:58:09.453Z,10.10
2017-05-13T03:00:37.688Z,10.10
2017-05-13T03:03:06.222Z,10.00
2017-05-13T03:05:34.748Z,10.10
2017-05-13T03:08:03.247Z,10.10
2017-05-13T03:10:30.769Z,10.10
2017-05-13T03:12:59.776Z,10.00
2017-05-13T03:15:28.100Z,9.90
2017-05-13T03:17:55.669Z,9.90
2017-05-13T03:20:23.428Z,9.80
2017-05-13T03:22:51.188Z,9.80
2017-05-13T03:25:18.789Z,9.70
2017-05-13T03:27:47.323Z,9.60
2017-05-13T03:30:15.084Z,9.60
2017-05-13T03:32:43.345Z,9.50
2017-05-13T03:35:11.984Z,9.40
2017-05-13T03:37:41.241Z,9.40
2017-05-13T03:40:09.568Z,9.30
2017-05-13T03:42:37.843Z,9.30
2017-05-13T03:45:06.374Z,9.30
2017-05-13T03:47:34.186Z,9.30
2017-05-13T03:50:02.716Z,9.30
2017-05-13T03:52:31.296Z,9.30
2017-05-13T03:54:59.118Z,9.30
2017-05-13T03:57:27.744Z,9.30
2017-05-13T03:59:56.014Z,9.30
2017-05-13T04:02:24.367Z,9.30
2017-05-13T04:04:52.699Z,9.30
2017-05-13T04:07:20.213Z,9.40
2017-05-13T04:09:48.540Z,9.40
2017-05-13T04:12:17.586Z,9.40
2017-05-13T04:14:45.080Z,9.40
2017-05-13T04:17:12.583Z,9.30
2017-05-13T04:19:40.119Z,9.20
2017-05-13T04:22:08.435Z,9.20
2017-05-13T04:24:36.727Z,9.20
2017-05-13T04:27:04.294Z,9.20
2017-05-13T04:29:31.824Z,9.20
2017-05-13T04:31:59.389Z,9.30
2017-05-13T04:34:27.647Z,9.50
2017-05-13T04:36:55.219Z,9.50
2017-05-13T04:39:22.778Z,9.50
2017-05-13T04:41:50.420Z,9.60
2017-05-13T04:44:17.998Z,9.70
2017-05-13T04:46:46.280Z,10.00
2017-05-13T04:49:14.548Z,10.10
2017-05-13T04:51:42.064Z,10.10
2017-05-13T04:54:09.588Z,10.40
2017-05-13T04:56:38.644Z,10.80
2017-05-13T04:59:06.251Z,10.80
2017-05-13T05:01:34.544Z,11.00
2017-05-13T05:04:02.039Z,11.00
2017-05-13T05:06:29.535Z,11.20
2017-05-13T05:08:57.864Z,11.60
2017-05-13T05:11:25.358Z,11.60
2017-05-13T05:13:53.907Z,12.20
2017-05-13T05:16:21.715Z,12.20
2017-05-13T05:18:49.992Z,12.70
2017-05-13T05:21:18.282Z,12.70
2017-05-13T05:23:46.623Z,12.70
2017-05-13T05:26:14.935Z,12.80
2017-05-13T05:28:42.451Z,12.80
2017-05-13T05:31:11.455Z,13.30
2017-05-13T05:33:38.963Z,13.30
2017-05-13T05:36:07.559Z,13.30
2017-05-13T05:38:35.296Z,13.20
2017-05-13T05:41:03.552Z,13.10
2017-05-13T05:43:31.858Z,13.00
2017-05-13T05:45:59.627Z,13.00
2017-05-13T05:48:27.162Z,12.90
2017-05-13T05:50:55.421Z,12.70
2017-05-13T05:53:22.935Z,12.70
2017-05-13T05:55:51.523Z,13.30
2017-05-13T05:58:19.024Z,13.20
2017-05-13T06:00:46.582Z,13.40
2017-05-13T06:03:14.104Z,13.50
2017-05-13T06:05:41.641Z,14.50
2017-05-13T06:08:09.168Z,16.00
2017-05-13T06:10:36.682Z,16.90
2017-05-13T06:13:05.224Z,20.20
2017-05-13T06:15:32.764Z,20.10
2017-05-13T06:18:01.077Z,22.70
2017-05-13T06:20:28.611Z,22.60
2017-05-13T06:22:56.925Z,23.10
2017-05-13T06:25:25.259Z,24.50
2017-05-13T06:27:53.579Z,23.90
2017-05-13T06:30:21.862Z,24.90
2017-05-13T06:32:50.182Z,23.90
2017-05-13T06:35:18.499Z,23.20
2017-05-13T06:37:46.052Z,23.10
2017-05-13T06:40:13.596Z,24.10
2017-05-13T06:42:42.664Z,26.20
2017-05-13T06:45:10.923Z,25.70
2017-05-13T06:47:38.480Z,25.60
2017-05-13T06:50:05.985Z,27.00
2017-05-13T06:52:33.733Z,26.10
2017-05-13T06:55:02.299Z,23.60
2017-05-13T06:57:29.861Z,23.50
2017-05-13T06:59:57.359Z,23.20
2017-05-13T07:02:25.660Z,23.80
2017-05-13T07:04:53.972Z,25.20
2017-05-13T07:07:22.324Z,25.00
2017-05-13T07:09:50.925Z,25.50
2017-05-13T07:12:18.683Z,25.50
2017-05-13T07:14:46.196Z,26.10
2017-05-13T07:17:14.460Z,27.50
2017-05-13T07:19:42.759Z,26.90
2017-05-13T07:22:10.304Z,26.80
2017-05-13T07:24:38.658Z,25.60
2017-05-13T07:27:07.659Z,24.10
2017-05-13T07:29:35.935Z,23.90
2017-05-13T07:32:04.240Z,23.20
2017-05-13T07:34:31.775Z,23.20
2017-05-13T07:37:00.071Z,24.00
2017-05-13T07:39:28.369Z,24.50
2017-05-13T07:41:55.919Z,24.40
2017-05-13T07:44:23.446Z,25.70
2017-05-13T07:46:51.987Z,26.00
2017-05-13T07:49:21.367Z,26.30
2017-05-13T07:51:49.636Z,25.80
2017-05-13T07:54:17.982Z,25.60
2017-05-13T07:56:46.331Z,24.70
2017-05-13T07:59:14.595Z,25.10
2017-05-13T08:01:43.660Z,25.90
2017-05-13T08:04:11.165Z,26.00
2017-05-13T08:06:39.447Z,25.40
2017-05-13T08:09:07.703Z,23.90
2017-05-13T08:11:36.012Z,23.00
2017-05-13T08:14:04.303Z,23.80
2017-05-13T08:16:31.882Z,23.80
2017-05-13T08:18:59.379Z,24.30
2017-05-13T08:21:27.734Z,23.80
2017-05-13T08:23:56.015Z,22.20
2017-05-13T08:26:23.520Z,22.20
2017-05-13T08:28:51.829Z,23.70
2017-05-13T08:31:26.284Z,24.90
2017-05-13T08:33:54.955Z,25.80
2017-05-13T08:36:22.568Z,25.80
2017-05-13T08:38:50.084Z,26.60
2017-05-13T08:41:18.428Z,25.80
2017-05-13T08:43:46.007Z,25.80
2017-05-13T08:46:14.315Z,26.30
2017-05-13T08:48:42.920Z,25.50
2017-05-13T08:51:10.791Z,25.50
2017-05-13T08:53:38.365Z,25.40
2017-05-13T08:56:06.004Z,25.70
2017-05-13T08:58:34.643Z,24.50
2017-05-13T09:01:02.900Z,23.20
2017-05-13T09:03:30.432Z,23.20
2017-05-13T09:05:57.985Z,23.10
2017-05-13T09:08:25.488Z,23.10
2017-05-13T09:10:53.808Z,24.70
2017-05-13T09:13:21.672Z,24.60
2017-05-13T09:15:49.967Z,23.20
2017-05-13T09:18:17.759Z,23.20
2017-05-13T09:20:46.047Z,22.60
2017-05-13T09:23:13.569Z,22.60
2017-05-13T09:25:42.588Z,22.70
2017-05-13T09:28:10.100Z,22.70
2017-05-13T09:30:37.619Z,23.00
2017-05-13T09:33:05.262Z,23.00
2017-05-13T09:35:33.564Z,23.10
2017-05-13T09:38:01.086Z,23.10
2017-05-13T09:40:29.620Z,22.30
2017-05-13T09:42:57.900Z,21.90
2017-05-13T09:45:26.193Z,21.80
2017-05-13T09:47:54.645Z,22.00
2017-05-13T09:50:22.184Z,21.90
2017-05-13T09:52:49.760Z,22.30
2017-05-13T09:55:18.020Z,22.50
2017-05-13T09:57:46.319Z,22.70
2017-05-13T10:00:14.575Z,22.70
2017-05-13T10:02:42.123Z,22.70
2017-05-13T10:05:10.431Z,22.70
2017-05-13T10:07:38.995Z,22.90
2017-05-13T10:10:07.283Z,23.20
2017-05-13T10:12:34.792Z,23.20
2017-05-13T10:15:03.408Z,23.10
2017-05-13T10:17:31.984Z,23.50
2017-05-13T10:19:59.480Z,23.50
2017-05-13T10:22:27.760Z,23.20
2017-05-13T10:24:58.249Z,23.00
2017-05-13T10:27:26.532Z,23.10
2017-05-13T10:29:54.840Z,23.20
2017-05-13T10:32:22.422Z,23.20
2017-05-13T10:34:49.923Z,23.30
2017-05-13T10:37:17.491Z,23.20
2017-05-13T10:39:45.000Z,22.50
2017-05-13T10:42:13.543Z,21.80
2017-05-13T10:44:41.079Z,21.70
2017-05-13T10:47:08.627Z,21.80
2017-05-13T10:49:36.962Z,20.70
2017-05-13T10:52:05.480Z,20.20
2017-05-13T10:54:33.265Z,20.10
2017-05-13T10:57:00.855Z,20.20
2017-05-13T10:59:29.210Z,20.60
2017-05-13T11:01:58.589Z,20.60
2017-05-13T11:04:26.164Z,20.60
2017-05-13T11:06:54.467Z,20.60
2017-05-13T11:09:22.824Z,21.00
2017-05-13T11:11:50.547Z,20.90
2017-05-13T11:14:18.804Z,20.90
2017-05-13T11:16:47.140Z,21.10
2017-05-13T11:19:18.716Z,21.10
2017-05-13T11:21:46.710Z,20.90
2017-05-13T11:24:14.251Z,20.40
2017-05-13T11:26:41.805Z,20.50
2017-05-13T11:29:09.295Z,20.50
2017-05-13T11:31:37.646Z,21.00
2017-05-13T11:34:05.940Z,21.40
2017-05-13T11:36:34.291Z,21.00
2017-05-13T11:39:02.560Z,20.50
2017-05-13T11:41:30.071Z,20.50
2017-05-13T11:43:58.337Z,20.20
2017-05-13T11:46:26.671Z,20.60
2017-05-13T11:48:54.185Z,20.60
2017-05-13T11:51:23.556Z,21.40
2017-05-13T11:53:52.587Z,21.50
2017-05-13T11:56:21.123Z,21.60
2017-05-13T11:58:48.640Z,21.60
2017-05-13T12:01:16.969Z,21.80
2017-05-13T12:03:45.251Z,21.30
2017-05-13T12:06:12.743Z,21.30
2017-05-13T12:08:40.323Z,20.90
2017-05-13T12:11:07.816Z,20.90
2017-05-13T12:13:35.355Z,21.00
2017-05-13T12:16:03.632Z,20.90
2017-05-13T12:18:31.188Z,20.90
2017-05-13T12:20:58.951Z,20.90
2017-05-13T12:23:26.513Z,21.00
2017-05-13T12:25:54.407Z,21.10
2017-05-13T12:28:23.466Z,21.00
2017-05-13T12:30:51.276Z,21.00
2017-05-13T12:33:19.606Z,21.60
2017-05-13T12:35:47.101Z,21.60
2017-05-13T12:38:15.403Z,21.20
2017-05-13T12:40:42.895Z,21.20
2017-05-13T12:43:10.655Z,20.90
2017-05-13T12:45:38.146Z,21.00
2017-05-13T12:48:07.138Z,20.90
2017-05-13T12:50:36.505Z,20.90
2017-05-13T12:53:04.775Z,20.80
2017-05-13T12:55:32.587Z,20.80
2017-05-13T12:58:00.992Z,20.80
2017-05-13T13:00:28.631Z,20.80
2017-05-13T13:02:57.287Z,20.90
2017-05-13T13:05:24.827Z,20.90
2017-05-13T13:07:54.149Z,20.70
2017-05-13T13:10:21.667Z,20.70
2017-05-13T13:12:49.158Z,20.50
2017-05-13T13:15:18.209Z,20.70
2017-05-13T13:17:46.457Z,20.50
2017-05-13T13:20:14.975Z,20.60
2017-05-13T13:22:42.500Z,20.60
2017-05-13T13:25:10.008Z,20.90
2017-05-13T13:27:38.308Z,20.60
2017-05-13T13:30:05.900Z,20.60
2017-05-13T13:32:33.388Z,20.80
2017-05-13T13:35:00.956Z,20.90
2017-05-13T13:37:28.491Z,20.80
2017-05-13T13:39:56.775Z,20.90
2017-05-13T13:42:25.072Z,21.20
2017-05-13T13:44:52.908Z,21.20
2017-05-13T13:47:21.592Z,21.20
2017-05-13T13:49:49.103Z,21.20
2017-05-13T13:52:17.741Z,21.20
2017-05-13T13:54:45.598Z,21.20
2017-05-13T13:57:13.462Z,20.90
2017-05-13T13:59:41.776Z,21.20
2017-05-13T14:02:09.597Z,21.20
2017-05-13T14:04:37.899Z,21.80
2017-05-13T14:07:05.791Z,21.80
2017-05-13T14:09:34.102Z,21.60
2017-05-13T14:12:01.740Z,21.60
2017-05-13T14:14:30.070Z,22.40
2017-05-13T14:16:57.624Z,22.40
2017-05-13T14:19:25.124Z,22.60
2017-05-13T14:21:53.524Z,22.80
2017-05-13T14:24:22.122Z,22.50
2017-05-13T14:26:50.455Z,22.10
2017-05-13T14:29:18.804Z,21.70
2017-05-13T14:31:46.339Z,21.70
2017-05-13T14:34:14.616Z,21.50
2017-05-13T14:36:42.128Z,21.50
2017-05-13T14:39:09.676Z,21.40
2017-05-13T14:41:38.033Z,21.50
2017-05-13T14:44:05.649Z,21.50
2017-05-13T14:46:33.176Z,21.20
2017-05-13T14:49:01.483Z,21.50
2017-05-13T14:51:30.172Z,21.30
2017-05-13T14:53:57.703Z,21.30
2017-05-13T14:56:25.252Z,21.00
2017-05-13T14:58:52.784Z,20.90
2017-05-13T15:01:21.080Z,20.70
2017-05-13T15:03:49.390Z,20.70
2017-05-13T15:06:17.151Z,20.70
2017-05-13T15:08:45.476Z,20.60
2017-05-13T15:11:13.799Z,20.50
2017-05-13T15:13:42.103Z,20.50
2017-05-13T15:16:10.383Z,20.50
2017-05-13T15:18:37.881Z,20.50
2017-05-13T15:21:06.159Z,20.50
2017-05-13T15:23:33.657Z,20.50
2017-05-13T15:26:01.979Z,20.90
2017-05-13T15:28:29.554Z,20.90
2017-05-13T15:30:57.336Z,21.10
2017-05-13T15:33:25.640Z,21.70
2017-05-13T15:35:53.151Z,21.70
2017-05-13T15:38:20.727Z,22.00
2017-05-13T15:40:48.268Z,21.90
2017-05-13T15:43:15.811Z,21.90
2017-05-13T15:45:44.103Z,21.40
2017-05-13T15:48:12.364Z,21.00
2017-05-13T15:50:39.851Z,21.00
2017-05-13T15:53:07.358Z,21.00
2017-05-13T15:55:35.635Z,21.00
2017-05-13T15:58:04.187Z,21.00
2017-05-13T16:00:31.679Z,21.00
2017-05-13T16:02:59.297Z,21.00
2017-05-13T16:05:26.787Z,20.90
2017-05-13T16:07:55.312Z,20.70
2017-05-13T16:10:23.661Z,20.60
2017-05-13T16:12:51.936Z,20.50
2017-05-13T16:15:19.473Z,20.50
2017-05-13T16:17:47.752Z,20.20
2017-05-13T16:20:16.015Z,20.20
2017-05-13T16:22:44.372Z,19.80
2017-05-13T16:25:11.868Z,19.80
2017-05-13T16:27:39.400Z,19.40
2017-05-13T16:30:07.659Z,19.20
2017-05-13T16:32:36.703Z,19.30
2017-05-13T16:35:04.233Z,19.30
2017-05-13T16:37:32.561Z,19.30
2017-05-13T16:40:00.840Z,19.20
2017-05-13T16:42:29.175Z,19.10
2017-05-13T16:44:56.732Z,19.10
2017-05-13T16:47:25.041Z,19.30
2017-05-13T16:49:52.556Z,19.30
2017-05-13T16:52:20.815Z,19.40
2017-05-13T16:54:49.095Z,19.50
2017-05-13T16:57:17.400Z,19.60
2017-05-13T16:59:45.179Z,19.60
2017-05-13T17:02:12.673Z,19.60
2017-05-13T17:04:41.256Z,19.60
2017-05-13T17:07:08.788Z,19.60
2017-05-13T17:09:37.304Z,19.30
2017-05-13T17:12:05.555Z,19.20
2017-05-13T17:14:33.068Z,19.20
2017-05-13T17:17:01.565Z,18.90
2017-05-13T17:19:29.488Z,18.90
2017-05-13T17:21:57.805Z,18.60
2017-05-13T17:24:25.332Z,18.60
2017-05-13T17:26:52.839Z,18.50
2017-05-13T17:29:20.335Z,18.40
2017-05-13T17:31:48.615Z,18.20
2017-05-13T17:34:16.414Z,18.20
2017-05-13T17:36:44.175Z,18.10
2017-05-13T17:39:11.667Z,18.10
2017-05-13T17:41:39.247Z,18.00
2017-05-13T17:44:07.807Z,17.90
2017-05-13T17:46:36.091Z,17.80
2017-05-13T17:49:04.678Z,17.60
2017-05-13T17:51:32.991Z,17.40
2017-05-13T17:54:01.252Z,17.20
2017-05-13T17:56:28.804Z,17.20
2017-05-13T17:58:56.719Z,17.10
2017-05-13T18:01:24.508Z,17.00
2017-05-13T18:03:52.832Z,16.80
2017-05-13T18:06:20.593Z,16.70
2017-05-13T18:08:48.089Z,16.60
2017-05-13T18:11:17.375Z,16.40
2017-05-13T18:13:46.480Z,16.20
2017-05-13T18:16:14.004Z,16.20
2017-05-13T18:18:41.563Z,16.00
2017-05-13T18:21:09.832Z,15.90
2017-05-13T18:23:38.197Z,15.80
2017-05-13T18:26:06.804Z,15.70
2017-05-13T18:28:35.376Z,15.60
2017-05-13T18:31:02.928Z,15.60
2017-05-13T18:33:30.463Z,15.50
2017-05-13T18:35:58.758Z,15.40
2017-05-13T18:38:27.054Z,15.20
2017-05-13T18:40:54.547Z,15.20
2017-05-13T18:43:22.827Z,14.90
2017-05-13T18:45:51.088Z,14.70
2017-05-13T18:48:18.669Z,14.70
2017-05-13T18:50:46.164Z,14.60
2017-05-13T18:53:14.019Z,14.30
2017-05-13T18:55:41.511Z,14.20
2017-05-13T18:58:10.544Z,13.90
2017-05-13T19:00:38.060Z,13.90
2017-05-13T19:03:05.552Z,13.80
2017-05-13T19:05:33.104Z,13.60
2017-05-13T19:08:01.424Z,13.30
2017-05-13T19:10:29.008Z,13.20
2017-05-13T19:12:56.561Z,13.10
2017-05-13T19:15:24.837Z,13.00
2017-05-13T19:17:53.152Z,13.10
2017-05-13T19:20:20.716Z,13.00
2017-05-13T19:22:48.501Z,13.10
2017-05-13T19:25:15.996Z,13.10
2017-05-13T19:27:44.581Z,13.10
2017-05-13T19:30:12.067Z,13.00
2017-05-13T19:32:39.603Z,13.00
2017-05-13T19:35:07.892Z,12.60
2017-05-13T19:37:35.448Z,12.60
2017-05-13T19:40:03.775Z,12.50
2017-05-13T19:42:32.280Z,12.50
2017-05-13T19:44:59.807Z,12.40
2017-05-13T19:47:29.315Z,12.40
2017-05-13T19:49:57.636Z,12.30
2017-05-13T19:52:25.954Z,12.30
2017-05-13T19:54:53.500Z,12.30
2017-05-13T19:57:21.267Z,12.30
2017-05-13T19:59:49.608Z,12.20
2017-05-13T20:02:17.937Z,12.10
2017-05-13T20:04:46.200Z,12.00
2017-05-13T20:07:13.955Z,12.00
2017-05-13T20:09:41.459Z,12.00
2017-05-13T20:12:10.019Z,11.80
2017-05-13T20:14:37.517Z,11.70
2017-05-13T20:17:05.103Z,11.70
2017-05-13T20:19:33.368Z,11.70
2017-05-13T20:22:00.864Z,11.70
2017-05-13T20:24:28.427Z,11.90
2017-05-13T20:26:57.484Z,12.10
2017-05-13T20:29:25.798Z,12.20
2017-05-13T20:31:54.885Z,12.10
2017-05-13T20:34:22.513Z,12.20
2017-05-13T20:36:50.247Z,12.10
2017-05-13T20:39:17.806Z,12.00
2017-05-13T20:41:45.301Z,12.00
2017-05-13T20:44:12.860Z,11.90
2017-05-13T20:46:40.416Z,11.90
2017-05-13T20:49:07.956Z,11.90
2017-05-13T20:51:35.451Z,12.00
2017-05-13T20:54:04.474Z,12.00
2017-05-13T20:56:31.992Z,12.00
2017-05-13T20:58:59.550Z,12.00
2017-05-13T21:01:27.044Z,12.00
2017-05-13T21:03:55.458Z,12.00
2017-05-13T21:06:23.098Z,12.10
2017-05-13T21:08:50.628Z,12.30
2017-05-13T21:11:18.932Z,12.10
2017-05-13T21:13:46.480Z,12.10
2017-05-13T21:16:14.044Z,12.10
2017-05-13T21:18:43.720Z,12.10
2017-05-13T21:21:12.033Z,12.00
2017-05-13T21:23:40.358Z,11.90
2017-05-13T21:26:07.985Z,11.90
2017-05-13T21:28:36.281Z,11.70
2017-05-13T21:31:03.886Z,11.70
2017-05-13T21:33:31.516Z,11.60
2017-05-13T21:35:59.035Z,11.50
2017-05-13T21:38:27.699Z,11.40
2017-05-13T21:40:55.228Z,11.40
2017-05-13T21:43:23.781Z,11.20
2017-05-13T21:45:51.284Z,11.20
2017-05-13T21:48:19.701Z,11.10
2017-05-13T21:50:47.999Z,11.00
2017-05-13T21:53:15.556Z,11.00
2017-05-13T21:55:43.157Z,10.90
2017-05-13T21:58:11.440Z,10.80
2017-05-13T22:00:39.704Z,10.80
2017-05-13T22:03:07.263Z,10.70
2017-05-13T22:05:35.371Z,10.70
2017-05-13T22:08:03.700Z,10.60
2017-05-13T22:10:31.318Z,10.60
2017-05-13T22:12:59.791Z,10.60
2017-05-13T22:15:27.284Z,10.50
2017-05-13T22:17:55.874Z,10.50
2017-05-13T22:20:23.376Z,10.50
2017-05-13T22:22:51.695Z,10.50
2017-05-13T22:25:20.219Z,10.50
2017-05-13T22:27:47.764Z,10.50
2017-05-13T22:30:16.028Z,10.50
2017-05-13T22:32:43.572Z,10.50
2017-05-13T22:35:11.103Z,10.50
2017-05-13T22:37:40.140Z,10.60
2017-05-13T22:40:08.851Z,10.70
2017-05-13T22:42:36.394Z,10.70
2017-05-13T22:45:03.911Z,10.70
2017-05-13T22:47:32.168Z,10.80
2017-05-13T22:50:00.517Z,10.70
2017-05-13T22:52:28.061Z,10.70
2017-05-13T22:54:55.579Z,10.70
2017-05-13T22:57:23.836Z,10.70
2017-05-13T22:59:52.177Z,10.70
2017-05-13T23:02:19.679Z,10.70
2017-05-13T23:04:48.005Z,10.80
2017-05-13T23:07:16.296Z,10.90
2017-05-13T23:09:45.335Z,11.00
2017-05-13T23:12:12.843Z,11.00
2017-05-13T23:14:40.372Z,11.10
2017-05-13T23:17:07.873Z,11.10
2017-05-13T23:19:35.373Z,11.10
2017-05-13T23:22:02.887Z,11.10
2017-05-13T23:24:30.431Z,11.00
2017-05-13T23:26:59.707Z,11.00
2017-05-13T23:29:27.965Z,11.00
2017-05-13T23:31:55.515Z,11.00
2017-05-13T23:34:23.007Z,10.90
2017-05-13T23:36:51.280Z,10.90
2017-05-13T23:39:18.772Z,10.90
2017-05-13T23:41:47.048Z,10.80
2017-05-13T23:44:15.307Z,10.80
2017-05-13T23:46:42.829Z,10.80
2017-05-13T23:49:11.414Z,10.80
2017-05-13T23:51:38.907Z,10.80
2017-05-13T23:54:06.433Z,10.80
2017-05-13T23:56:34.686Z,10.90
2017-05-13T23:59:02.199Z,10.90
